sensor_id;sensor_type;location;lat;lon;timestamp;pressure;altitude;pressure_sealevel;temperature;humidity
6506;BME280;3286;49.858;8.768;2023-03-05T00:02:03;99556.22;;;6.16;55.55
6506;BME280;3286;49.858;8.768;2023-03-05T00:04:31;99549.78;;;6.20;55.73
6506;BME280;3286;49.858;8.768;2023-03-05T00:06:58;99555.22;;;6.30;55.72
6506;BME280;3286;49.858;8.768;2023-03-05T00:09:25;99552.47;;;5.83;56.76
6506;BME280;3286;49.858;8.768;2023-03-05T00:11:51;99554.13;;;5.46;57.81
6506;BME280;3286;49.858;8.768;2023-03-05T00:14:18;99549.78;;;5.71;57.55
6506;BME280;3286;49.858;8.768;2023-03-05T00:16:44;99548.09;;;5.94;56.95
6506;BME280;3286;49.858;8.768;2023-03-05T00:19:11;99547.66;;;6.25;55.85
6506;BME280;3286;49.858;8.768;2023-03-05T00:21:40;99555.63;;;6.48;55.23
6506;BME280;3286;49.858;8.768;2023-03-05T00:24:10;99545.38;;;5.72;57.31
6506;BME280;3286;49.858;8.768;2023-03-05T00:26:38;99554.13;;;5.59;58.12
6506;BME280;3286;49.858;8.768;2023-03-05T00:29:05;99549.34;;;5.77;57.87
6506;BME280;3286;49.858;8.768;2023-03-05T00:31:34;99546.22;;;5.97;56.87
6506;BME280;3286;49.858;8.768;2023-03-05T00:34:02;99538.34;;;5.72;57.63
6506;BME280;3286;49.858;8.768;2023-03-05T00:36:29;99548.00;;;5.96;56.89
6506;BME280;3286;49.858;8.768;2023-03-05T00:38:58;99542.34;;;5.28;58.59
6506;BME280;3286;49.858;8.768;2023-03-05T00:41:26;99544.91;;;5.03;60.04
6506;BME280;3286;49.858;8.768;2023-03-05T00:43:53;99542.34;;;5.41;58.23
6506;BME280;3286;49.858;8.768;2023-03-05T00:46:20;99537.47;;;6.09;56.57
6506;BME280;3286;49.858;8.768;2023-03-05T00:48:48;99532.69;;;5.90;57.36
6506;BME280;3286;49.858;8.768;2023-03-05T00:51:15;99525.19;;;6.45;55.75
6506;BME280;3286;49.858;8.768;2023-03-05T00:53:41;99521.97;;;6.53;55.49
6506;BME280;3286;49.858;8.768;2023-03-05T00:56:09;99527.13;;;5.70;57.45
6506;BME280;3286;49.858;8.768;2023-03-05T00:58:36;99526.81;;;6.23;56.26
6506;BME280;3286;49.858;8.768;2023-03-05T01:01:03;99519.91;;;6.34;55.35
6506;BME280;3286;49.858;8.768;2023-03-05T01:03:31;99522.44;;;6.11;56.40
6506;BME280;3286;49.858;8.768;2023-03-05T01:05:59;99519.19;;;6.32;55.99
6506;BME280;3286;49.858;8.768;2023-03-05T01:08:26;99509.09;;;6.61;55.13
6506;BME280;3286;49.858;8.768;2023-03-05T01:10:53;99514.66;;;6.34;55.81
6506;BME280;3286;49.858;8.768;2023-03-05T01:13:21;99518.63;;;6.51;55.10
6506;BME280;3286;49.858;8.768;2023-03-05T01:15:48;99520.13;;;6.19;56.70
6506;BME280;3286;49.858;8.768;2023-03-05T01:18:15;99511.81;;;5.77;57.12
6506;BME280;3286;49.858;8.768;2023-03-05T01:20:42;99508.69;;;6.32;55.89
6506;BME280;3286;49.858;8.768;2023-03-05T01:23:09;99503.13;;;6.36;55.83
6506;BME280;3286;49.858;8.768;2023-03-05T01:25:36;99506.88;;;6.21;55.90
6506;BME280;3286;49.858;8.768;2023-03-05T01:28:03;99503.88;;;6.14;56.37
6506;BME280;3286;49.858;8.768;2023-03-05T01:30:31;99499.63;;;6.25;55.68
6506;BME280;3286;49.858;8.768;2023-03-05T01:32:58;99498.13;;;6.67;54.73
6506;BME280;3286;49.858;8.768;2023-03-05T01:35:25;99493.81;;;6.55;55.15
6506;BME280;3286;49.858;8.768;2023-03-05T01:37:52;99496.97;;;6.13;56.52
6506;BME280;3286;49.858;8.768;2023-03-05T01:40:22;99495.78;;;6.17;56.10
6506;BME280;3286;49.858;8.768;2023-03-05T01:42:58;99494.44;;;6.12;55.82
6506;BME280;3286;49.858;8.768;2023-03-05T01:45:28;99489.22;;;6.23;55.79
6506;BME280;3286;49.858;8.768;2023-03-05T01:47:57;99487.78;;;6.19;55.86
6506;BME280;3286;49.858;8.768;2023-03-05T01:50:25;99490.78;;;6.14;55.74
6506;BME280;3286;49.858;8.768;2023-03-05T01:52:54;99489.84;;;6.27;55.85
6506;BME280;3286;49.858;8.768;2023-03-05T01:55:23;99474.88;;;6.63;54.46
6506;BME280;3286;49.858;8.768;2023-03-05T01:57:54;99471.78;;;6.69;54.18
6506;BME280;3286;49.858;8.768;2023-03-05T02:00:24;99476.88;;;6.48;54.79
6506;BME280;3286;49.858;8.768;2023-03-05T02:02:52;99477.84;;;6.70;53.92
6506;BME280;3286;49.858;8.768;2023-03-05T02:05:22;99478.31;;;6.63;54.45
6506;BME280;3286;49.858;8.768;2023-03-05T02:07:52;99474.09;;;6.27;54.97
6506;BME280;3286;49.858;8.768;2023-03-05T02:10:21;99466.28;;;6.84;54.12
6506;BME280;3286;49.858;8.768;2023-03-05T02:12:49;99472.25;;;6.74;54.04
6506;BME280;3286;49.858;8.768;2023-03-05T02:15:17;99461.16;;;6.82;53.56
6506;BME280;3286;49.858;8.768;2023-03-05T02:17:44;99457.22;;;6.54;54.11
6506;BME280;3286;49.858;8.768;2023-03-05T02:20:13;99465.69;;;6.80;53.21
6506;BME280;3286;49.858;8.768;2023-03-05T02:22:41;99466.72;;;6.32;54.63
6506;BME280;3286;49.858;8.768;2023-03-05T02:25:13;99453.59;;;6.20;54.90
6506;BME280;3286;49.858;8.768;2023-03-05T02:27:42;99460.59;;;6.20;54.95
6506;BME280;3286;49.858;8.768;2023-03-05T02:30:10;99457.50;;;6.15;55.11
6506;BME280;3286;49.858;8.768;2023-03-05T02:32:37;99454.81;;;6.50;53.77
6506;BME280;3286;49.858;8.768;2023-03-05T02:35:05;99450.88;;;6.67;53.18
6506;BME280;3286;49.858;8.768;2023-03-05T02:37:31;99449.69;;;6.49;53.45
6506;BME280;3286;49.858;8.768;2023-03-05T02:39:59;99441.16;;;5.87;54.75
6506;BME280;3286;49.858;8.768;2023-03-05T02:42:26;99442.25;;;5.60;55.83
6506;BME280;3286;49.858;8.768;2023-03-05T02:44:56;99443.75;;;6.11;54.60
6506;BME280;3286;49.858;8.768;2023-03-05T02:47:22;99441.13;;;6.11;53.90
6506;BME280;3286;49.858;8.768;2023-03-05T02:49:49;99436.56;;;5.66;55.11
6506;BME280;3286;49.858;8.768;2023-03-05T02:52:16;99436.41;;;6.16;53.09
6506;BME280;3286;49.858;8.768;2023-03-05T02:54:42;99431.88;;;6.52;52.51
6506;BME280;3286;49.858;8.768;2023-03-05T02:57:10;99429.38;;;6.28;52.28
6506;BME280;3286;49.858;8.768;2023-03-05T02:59:37;99432.53;;;5.73;53.87
6506;BME280;3286;49.858;8.768;2023-03-05T03:02:03;99424.72;;;6.20;53.23
6506;BME280;3286;49.858;8.768;2023-03-05T03:04:30;99420.88;;;5.42;54.76
6506;BME280;3286;49.858;8.768;2023-03-05T03:06:57;99420.28;;;6.09;52.57
6506;BME280;3286;49.858;8.768;2023-03-05T03:09:23;99415.66;;;6.36;52.02
6506;BME280;3286;49.858;8.768;2023-03-05T03:11:51;99417.34;;;6.37;51.63
6506;BME280;3286;49.858;8.768;2023-03-05T03:14:19;99420.31;;;6.66;50.82
6506;BME280;3286;49.858;8.768;2023-03-05T03:16:46;99413.03;;;6.47;51.50
6506;BME280;3286;49.858;8.768;2023-03-05T03:19:12;99414.09;;;6.11;52.29
6506;BME280;3286;49.858;8.768;2023-03-05T03:21:40;99411.84;;;6.29;51.94
6506;BME280;3286;49.858;8.768;2023-03-05T03:24:06;99404.34;;;6.81;50.83
6506;BME280;3286;49.858;8.768;2023-03-05T03:26:33;99402.16;;;6.98;50.70
6506;BME280;3286;49.858;8.768;2023-03-05T03:29:00;99403.38;;;6.82;51.09
6506;BME280;3286;49.858;8.768;2023-03-05T03:31:27;99405.41;;;6.78;51.14
6506;BME280;3286;49.858;8.768;2023-03-05T03:33:54;99402.03;;;6.88;51.37
6506;BME280;3286;49.858;8.768;2023-03-05T03:36:21;99393.31;;;6.99;50.95
6506;BME280;3286;49.858;8.768;2023-03-05T03:38:47;99396.34;;;6.71;51.70
6506;BME280;3286;49.858;8.768;2023-03-05T03:41:14;99400.50;;;6.96;50.94
6506;BME280;3286;49.858;8.768;2023-03-05T03:43:41;99396.91;;;6.98;50.89
6506;BME280;3286;49.858;8.768;2023-03-05T03:46:07;99397.63;;;7.00;50.81
6506;BME280;3286;49.858;8.768;2023-03-05T03:48:35;99391.09;;;6.71;51.44
6506;BME280;3286;49.858;8.768;2023-03-05T03:51:04;99391.34;;;6.45;52.08
6506;BME280;3286;49.858;8.768;2023-03-05T03:53:30;99386.09;;;6.45;52.19
6506;BME280;3286;49.858;8.768;2023-03-05T03:55:57;99387.03;;;6.67;51.09
6506;BME280;3286;49.858;8.768;2023-03-05T03:58:24;99383.94;;;6.62;50.50
6506;BME280;3286;49.858;8.768;2023-03-05T04:00:51;99382.50;;;6.35;51.35
6506;BME280;3286;49.858;8.768;2023-03-05T04:03:18;99385.75;;;6.38;50.98
6506;BME280;3286;49.858;8.768;2023-03-05T04:05:45;99383.13;;;6.50;50.24
6506;BME280;3286;49.858;8.768;2023-03-05T04:08:12;99378.22;;;6.45;50.65
6506;BME280;3286;49.858;8.768;2023-03-05T04:10:39;99371.41;;;6.54;49.46
6506;BME280;3286;49.858;8.768;2023-03-05T04:13:06;99364.59;;;6.06;50.83
6506;BME280;3286;49.858;8.768;2023-03-05T04:15:33;99371.06;;;6.47;49.85
6506;BME280;3286;49.858;8.768;2023-03-05T04:17:59;99369.03;;;6.62;49.68
6506;BME280;3286;49.858;8.768;2023-03-05T04:20:26;99360.28;;;6.85;49.18
6506;BME280;3286;49.858;8.768;2023-03-05T04:22:54;99364.16;;;6.58;49.13
6506;BME280;3286;49.858;8.768;2023-03-05T04:25:21;99355.19;;;6.60;48.61
6506;BME280;3286;49.858;8.768;2023-03-05T04:27:47;99354.97;;;6.52;48.78
6506;BME280;3286;49.858;8.768;2023-03-05T04:30:14;99363.25;;;6.00;49.16
6506;BME280;3286;49.858;8.768;2023-03-05T04:32:41;99354.53;;;5.88;49.33
6506;BME280;3286;49.858;8.768;2023-03-05T04:35:08;99345.19;;;6.43;48.41
6506;BME280;3286;49.858;8.768;2023-03-05T04:37:34;99352.69;;;6.25;48.23
6506;BME280;3286;49.858;8.768;2023-03-05T04:40:03;99356.63;;;6.19;49.43
6506;BME280;3286;49.858;8.768;2023-03-05T04:42:30;99357.84;;;6.37;48.47
6506;BME280;3286;49.858;8.768;2023-03-05T04:44:56;99351.97;;;6.11;49.00
6506;BME280;3286;49.858;8.768;2023-03-05T04:47:23;99354.47;;;5.65;50.07
6506;BME280;3286;49.858;8.768;2023-03-05T04:49:50;99363.53;;;4.88;51.78
6506;BME280;3286;49.858;8.768;2023-03-05T04:52:16;99368.03;;;5.24;51.47
6506;BME280;3286;49.858;8.768;2023-03-05T04:54:43;99359.53;;;5.20;51.83
6506;BME280;3286;49.858;8.768;2023-03-05T04:57:11;99361.84;;;5.25;51.59
6506;BME280;3286;49.858;8.768;2023-03-05T04:59:38;99356.38;;;5.28;51.57
6506;BME280;3286;49.858;8.768;2023-03-05T05:02:04;99357.19;;;5.53;50.96
6506;BME280;3286;49.858;8.768;2023-03-05T05:04:31;99356.06;;;5.91;49.78
6506;BME280;3286;49.858;8.768;2023-03-05T05:06:59;99357.72;;;5.33;51.27
6506;BME280;3286;49.858;8.768;2023-03-05T05:09:26;99348.94;;;5.46;51.27
6506;BME280;3286;49.858;8.768;2023-03-05T05:11:53;99354.16;;;5.34;51.44
6506;BME280;3286;49.858;8.768;2023-03-05T05:14:21;99351.84;;;6.24;49.09
6506;BME280;3286;49.858;8.768;2023-03-05T05:16:48;99357.19;;;5.53;50.47
6506;BME280;3286;49.858;8.768;2023-03-05T05:19:14;99349.94;;;6.26;49.30
6506;BME280;3286;49.858;8.768;2023-03-05T05:21:41;99345.91;;;6.33;48.46
6506;BME280;3286;49.858;8.768;2023-03-05T05:24:08;99342.31;;;6.23;48.98
6506;BME280;3286;49.858;8.768;2023-03-05T05:26:35;99345.28;;;6.41;48.33
6506;BME280;3286;49.858;8.768;2023-03-05T05:29:01;99339.91;;;6.31;49.02
6506;BME280;3286;49.858;8.768;2023-03-05T05:31:29;99348.75;;;6.19;49.54
6506;BME280;3286;49.858;8.768;2023-03-05T05:33:56;99340.41;;;6.36;48.90
6506;BME280;3286;49.858;8.768;2023-03-05T05:36:22;99350.16;;;6.00;49.56
6506;BME280;3286;49.858;8.768;2023-03-05T05:38:49;99342.19;;;6.02;49.68
6506;BME280;3286;49.858;8.768;2023-03-05T05:41:17;99338.94;;;6.66;48.36
6506;BME280;3286;49.858;8.768;2023-03-05T05:43:44;99346.13;;;6.07;49.83
6506;BME280;3286;49.858;8.768;2023-03-05T05:46:13;99346.84;;;6.09;50.02
6506;BME280;3286;49.858;8.768;2023-03-05T05:48:42;99342.34;;;6.34;49.48
6506;BME280;3286;49.858;8.768;2023-03-05T05:51:11;99342.19;;;6.36;49.19
6506;BME280;3286;49.858;8.768;2023-03-05T05:53:40;99350.91;;;6.14;49.70
6506;BME280;3286;49.858;8.768;2023-03-05T05:56:08;99351.38;;;6.19;49.75
6506;BME280;3286;49.858;8.768;2023-03-05T05:58:35;99340.06;;;6.30;49.26
6506;BME280;3286;49.858;8.768;2023-03-05T06:01:11;99347.69;;;6.21;50.17
6506;BME280;3286;49.858;8.768;2023-03-05T06:03:38;99343.41;;;5.62;50.88
6506;BME280;3286;49.858;8.768;2023-03-05T06:06:08;99345.94;;;5.75;50.96
6506;BME280;3286;49.858;8.768;2023-03-05T06:08:35;99335.63;;;6.19;50.12
6506;BME280;3286;49.858;8.768;2023-03-05T06:11:02;99333.72;;;6.44;49.41
6506;BME280;3286;49.858;8.768;2023-03-05T06:13:28;99334.78;;;6.52;49.30
6506;BME280;3286;49.858;8.768;2023-03-05T06:15:56;99337.28;;;6.31;49.72
6506;BME280;3286;49.858;8.768;2023-03-05T06:18:23;99329.78;;;6.61;48.52
6506;BME280;3286;49.858;8.768;2023-03-05T06:20:53;99340.41;;;6.48;49.03
6506;BME280;3286;49.858;8.768;2023-03-05T06:23:21;99330.63;;;6.50;48.93
6506;BME280;3286;49.858;8.768;2023-03-05T06:25:48;99330.50;;;6.63;48.64
6506;BME280;3286;49.858;8.768;2023-03-05T06:28:15;99332.03;;;6.65;48.72
6506;BME280;3286;49.858;8.768;2023-03-05T06:30:41;99332.75;;;6.56;48.68
6506;BME280;3286;49.858;8.768;2023-03-05T06:33:08;99330.94;;;6.79;48.72
6506;BME280;3286;49.858;8.768;2023-03-05T06:35:36;99327.97;;;6.61;48.92
6506;BME280;3286;49.858;8.768;2023-03-05T06:38:03;99333.84;;;6.31;49.65
6506;BME280;3286;49.858;8.768;2023-03-05T06:40:31;99322.00;;;6.59;48.89
6506;BME280;3286;49.858;8.768;2023-03-05T06:42:58;99324.41;;;6.62;49.22
6506;BME280;3286;49.858;8.768;2023-03-05T06:45:24;99321.28;;;6.80;48.76
6506;BME280;3286;49.858;8.768;2023-03-05T06:47:51;99317.28;;;6.97;48.74
6506;BME280;3286;49.858;8.768;2023-03-05T06:50:18;99318.75;;;6.78;49.13
6506;BME280;3286;49.858;8.768;2023-03-05T06:52:48;99321.09;;;6.93;49.85
6506;BME280;3286;49.858;8.768;2023-03-05T06:55:14;99319.69;;;6.89;49.50
6506;BME280;3286;49.858;8.768;2023-03-05T06:57:42;99311.84;;;6.77;49.93
6506;BME280;3286;49.858;8.768;2023-03-05T07:00:11;99317.59;;;7.04;49.30
6506;BME280;3286;49.858;8.768;2023-03-05T07:02:37;99310.72;;;6.91;49.54
6506;BME280;3286;49.858;8.768;2023-03-05T07:05:05;99315.63;;;6.96;49.37
6506;BME280;3286;49.858;8.768;2023-03-05T07:07:33;99320.44;;;7.12;48.64
6506;BME280;3286;49.858;8.768;2023-03-05T07:09:59;99320.66;;;7.20;48.31
6506;BME280;3286;49.858;8.768;2023-03-05T07:12:26;99318.31;;;7.38;48.01
6506;BME280;3286;49.858;8.768;2023-03-05T07:14:54;99321.22;;;7.24;49.06
6506;BME280;3286;49.858;8.768;2023-03-05T07:17:21;99310.19;;;7.42;48.72
6506;BME280;3286;49.858;8.768;2023-03-05T07:19:47;99321.22;;;7.24;49.35
6506;BME280;3286;49.858;8.768;2023-03-05T07:22:14;99316.03;;;7.13;49.62
6506;BME280;3286;49.858;8.768;2023-03-05T07:24:40;99311.06;;;7.31;48.78
6506;BME280;3286;49.858;8.768;2023-03-05T07:27:07;99317.91;;;7.22;49.95
6506;BME280;3286;49.858;8.768;2023-03-05T07:29:33;99314.09;;;6.82;47.71
6506;BME280;3286;49.858;8.768;2023-03-05T07:32:02;99317.28;;;5.60;51.84
6506;BME280;3286;49.858;8.768;2023-03-05T07:34:28;99311.66;;;6.58;49.55
6506;BME280;3286;49.858;8.768;2023-03-05T07:36:55;99312.13;;;6.51;49.72
6506;BME280;3286;49.858;8.768;2023-03-05T07:39:21;99320.38;;;5.18;53.40
6506;BME280;3286;49.858;8.768;2023-03-05T07:41:48;99314.91;;;5.69;51.99
6506;BME280;3286;49.858;8.768;2023-03-05T07:44:16;99317.84;;;6.45;50.46
6506;BME280;3286;49.858;8.768;2023-03-05T07:46:43;99317.88;;;6.22;50.45
6506;BME280;3286;49.858;8.768;2023-03-05T07:49:11;99321.09;;;6.03;51.64
6506;BME280;3286;49.858;8.768;2023-03-05T07:51:39;99323.72;;;6.15;51.01
6506;BME280;3286;49.858;8.768;2023-03-05T07:54:05;99319.91;;;6.42;50.58
6506;BME280;3286;49.858;8.768;2023-03-05T07:56:33;99320.72;;;6.65;49.16
6506;BME280;3286;49.858;8.768;2023-03-05T07:59:02;99331.69;;;6.36;50.20
6506;BME280;3286;49.858;8.768;2023-03-05T08:01:30;99329.56;;;6.18;50.43
6506;BME280;3286;49.858;8.768;2023-03-05T08:03:57;99324.19;;;6.31;50.89
6506;BME280;3286;49.858;8.768;2023-03-05T08:06:26;99317.19;;;5.73;51.24
6506;BME280;3286;49.858;8.768;2023-03-05T08:08:53;99329.25;;;5.87;50.54
6506;BME280;3286;49.858;8.768;2023-03-05T08:11:20;99329.31;;;5.27;51.55
6506;BME280;3286;49.858;8.768;2023-03-05T08:13:47;99323.53;;;5.35;51.17
6506;BME280;3286;49.858;8.768;2023-03-05T08:16:15;99327.09;;;5.34;51.61
6506;BME280;3286;49.858;8.768;2023-03-05T08:18:42;99324.22;;;5.26;52.13
6506;BME280;3286;49.858;8.768;2023-03-05T08:21:16;99321.75;;;5.83;51.05
6506;BME280;3286;49.858;8.768;2023-03-05T08:23:44;99314.03;;;6.38;50.37
6506;BME280;3286;49.858;8.768;2023-03-05T08:26:12;99318.25;;;5.71;51.99
6506;BME280;3286;49.858;8.768;2023-03-05T08:28:39;99312.03;;;5.60;52.28
6506;BME280;3286;49.858;8.768;2023-03-05T08:31:08;99318.88;;;5.86;51.73
6506;BME280;3286;49.858;8.768;2023-03-05T08:33:35;99303.19;;;5.39;52.55
6506;BME280;3286;49.858;8.768;2023-03-05T08:36:02;99310.28;;;5.25;52.95
6506;BME280;3286;49.858;8.768;2023-03-05T08:38:29;99307.03;;;5.10;53.35
6506;BME280;3286;49.858;8.768;2023-03-05T08:40:57;99301.44;;;5.15;54.05
6506;BME280;3286;49.858;8.768;2023-03-05T08:43:23;99306.47;;;4.56;55.30
6506;BME280;3286;49.858;8.768;2023-03-05T08:45:50;99305.78;;;5.03;54.75
6506;BME280;3286;49.858;8.768;2023-03-05T08:48:17;99303.34;;;6.18;51.66
6506;BME280;3286;49.858;8.768;2023-03-05T08:50:45;99298.78;;;5.39;51.81
6506;BME280;3286;49.858;8.768;2023-03-05T08:53:12;99307.09;;;4.23;54.66
6506;BME280;3286;49.858;8.768;2023-03-05T08:55:39;99302.34;;;4.41;55.14
6506;BME280;3286;49.858;8.768;2023-03-05T08:58:07;99295.19;;;5.76;52.15
6506;BME280;3286;49.858;8.768;2023-03-05T09:00:33;99305.44;;;5.90;52.03
6506;BME280;3286;49.858;8.768;2023-03-05T09:03:00;99301.63;;;4.76;53.37
6506;BME280;3286;49.858;8.768;2023-03-05T09:05:26;99307.94;;;5.09;53.09
6506;BME280;3286;49.858;8.768;2023-03-05T09:07:53;99294.22;;;4.32;55.63
6506;BME280;3286;49.858;8.768;2023-03-05T09:10:20;99298.19;;;4.62;53.97
6506;BME280;3286;49.858;8.768;2023-03-05T09:12:46;99296.44;;;4.87;53.58
6506;BME280;3286;49.858;8.768;2023-03-05T09:15:15;99290.72;;;5.18;53.16
6506;BME280;3286;49.858;8.768;2023-03-05T09:17:42;99302.19;;;5.75;51.27
6506;BME280;3286;49.858;8.768;2023-03-05T09:20:11;99300.66;;;5.01;51.13
6506;BME280;3286;49.858;8.768;2023-03-05T09:22:38;99299.47;;;4.06;53.07
6506;BME280;3286;49.858;8.768;2023-03-05T09:25:06;99299.03;;;4.63;52.46
6506;BME280;3286;49.858;8.768;2023-03-05T09:27:33;99289.94;;;5.29;49.94
6506;BME280;3286;49.858;8.768;2023-03-05T09:30:00;99297.34;;;4.38;52.26
6506;BME280;3286;49.858;8.768;2023-03-05T09:32:29;99301.63;;;5.00;50.50
6506;BME280;3286;49.858;8.768;2023-03-05T09:34:56;99286.47;;;4.68;51.60
6506;BME280;3286;49.858;8.768;2023-03-05T09:37:23;99286.41;;;4.06;52.69
6506;BME280;3286;49.858;8.768;2023-03-05T09:39:50;99296.34;;;3.88;52.49
6506;BME280;3286;49.858;8.768;2023-03-05T09:42:28;99287.78;;;3.73;52.68
6506;BME280;3286;49.858;8.768;2023-03-05T09:45:02;99279.91;;;4.12;52.77
6506;BME280;3286;49.858;8.768;2023-03-05T09:47:47;99267.41;;;6.42;47.37
6506;BME280;3286;49.858;8.768;2023-03-05T09:50:36;99271.13;;;5.24;49.62
6506;BME280;3286;49.858;8.768;2023-03-05T09:53:11;99269.78;;;5.65;49.23
6506;BME280;3286;49.858;8.768;2023-03-05T09:55:43;99255.47;;;5.69;48.65
6506;BME280;3286;49.858;8.768;2023-03-05T09:58:13;99257.31;;;6.03;47.89
6506;BME280;3286;49.858;8.768;2023-03-05T10:00:42;99260.97;;;6.00;47.37
6506;BME280;3286;49.858;8.768;2023-03-05T10:03:16;99252.22;;;5.07;48.82
6506;BME280;3286;49.858;8.768;2023-03-05T10:05:52;99259.03;;;5.10;48.98
6506;BME280;3286;49.858;8.768;2023-03-05T10:08:24;99255.03;;;6.09;47.62
6506;BME280;3286;49.858;8.768;2023-03-05T10:10:56;99254.78;;;5.78;48.35
6506;BME280;3286;49.858;8.768;2023-03-05T10:13:27;99251.50;;;5.41;49.58
6506;BME280;3286;49.858;8.768;2023-03-05T10:16:04;99249.03;;;5.85;47.37
6506;BME280;3286;49.858;8.768;2023-03-05T10:18:38;99250.50;;;4.83;51.00
6506;BME280;3286;49.858;8.768;2023-03-05T10:21:09;99242.25;;;5.93;48.18
6506;BME280;3286;49.858;8.768;2023-03-05T10:23:58;99238.72;;;6.61;46.37
6506;BME280;3286;49.858;8.768;2023-03-05T10:26:46;99234.19;;;6.19;46.17
6506;BME280;3286;49.858;8.768;2023-03-05T10:29:38;99233.31;;;6.42;46.76
6506;BME280;3286;49.858;8.768;2023-03-05T10:32:20;99224.47;;;6.31;45.83
6506;BME280;3286;49.858;8.768;2023-03-05T10:35:18;99233.34;;;5.26;49.04
6506;BME280;3286;49.858;8.768;2023-03-05T10:38:07;99224.25;;;5.55;48.00
6506;BME280;3286;49.858;8.768;2023-03-05T10:40:41;99223.91;;;5.71;47.84
6506;BME280;3286;49.858;8.768;2023-03-05T10:43:17;99211.69;;;6.82;45.42
6506;BME280;3286;49.858;8.768;2023-03-05T10:45:49;99218.41;;;6.31;46.79
6506;BME280;3286;49.858;8.768;2023-03-05T10:48:25;99212.53;;;6.50;45.13
6506;BME280;3286;49.858;8.768;2023-03-05T10:50:58;99218.75;;;7.24;44.76
6506;BME280;3286;49.858;8.768;2023-03-05T10:53:27;99211.69;;;5.24;47.84
6506;BME280;3286;49.858;8.768;2023-03-05T10:56:00;99207.09;;;5.85;46.17
6506;BME280;3286;49.858;8.768;2023-03-05T10:58:27;99212.53;;;6.50;45.21
6506;BME280;3286;49.858;8.768;2023-03-05T11:00:59;99206.63;;;5.79;46.80
6506;BME280;3286;49.858;8.768;2023-03-05T11:03:45;99196.72;;;6.61;47.62
6506;BME280;3286;49.858;8.768;2023-03-05T11:06:14;99196.94;;;6.37;44.54
6506;BME280;3286;49.858;8.768;2023-03-05T11:08:41;99198.28;;;6.64;43.40
6506;BME280;3286;49.858;8.768;2023-03-05T11:11:15;99197.38;;;6.54;43.39
6506;BME280;3286;49.858;8.768;2023-03-05T11:13:54;99189.78;;;5.14;46.17
6506;BME280;3286;49.858;8.768;2023-03-05T11:16:24;99183.41;;;5.86;45.60
6506;BME280;3286;49.858;8.768;2023-03-05T11:19:11;99183.88;;;5.57;45.55
6506;BME280;3286;49.858;8.768;2023-03-05T11:21:42;99181.25;;;5.34;46.04
6506;BME280;3286;49.858;8.768;2023-03-05T11:24:11;99174.22;;;6.47;44.36
6506;BME280;3286;49.858;8.768;2023-03-05T11:26:45;99177.84;;;7.31;41.84
6506;BME280;3286;49.858;8.768;2023-03-05T11:29:17;99181.50;;;5.31;46.13
6506;BME280;3286;49.858;8.768;2023-03-05T11:31:45;99179.66;;;6.34;44.14
6506;BME280;3286;49.858;8.768;2023-03-05T11:34:24;99177.41;;;6.84;43.31
6506;BME280;3286;49.858;8.768;2023-03-05T11:37:03;99166.81;;;6.85;42.24
6506;BME280;3286;49.858;8.768;2023-03-05T11:39:31;99163.06;;;6.88;42.07
6506;BME280;3286;49.858;8.768;2023-03-05T11:42:02;99162.34;;;6.97;41.06
6506;BME280;3286;49.858;8.768;2023-03-05T11:44:33;99160.06;;;6.71;42.48
6506;BME280;3286;49.858;8.768;2023-03-05T11:47:15;99163.09;;;6.22;43.20
6506;BME280;3286;49.858;8.768;2023-03-05T11:49:45;99153.28;;;6.36;43.26
6506;BME280;3286;49.858;8.768;2023-03-05T11:52:19;99149.34;;;5.52;45.50
6506;BME280;3286;49.858;8.768;2023-03-05T11:54:54;99149.06;;;5.10;46.02
6506;BME280;3286;49.858;8.768;2023-03-05T11:57:23;99149.41;;;5.05;45.65
6506;BME280;3286;49.858;8.768;2023-03-05T11:59:51;99148.84;;;5.58;46.07
6506;BME280;3286;49.858;8.768;2023-03-05T12:02:22;99137.38;;;6.05;44.55
6506;BME280;3286;49.858;8.768;2023-03-05T12:04:49;99139.56;;;5.54;46.46
6506;BME280;3286;49.858;8.768;2023-03-05T12:07:19;99136.44;;;5.26;46.25
6506;BME280;3286;49.858;8.768;2023-03-05T12:09:48;99132.88;;;5.27;47.13
6506;BME280;3286;49.858;8.768;2023-03-05T12:12:28;99123.81;;;5.65;45.99
6506;BME280;3286;49.858;8.768;2023-03-05T12:15:06;99127.06;;;5.12;47.12
6506;BME280;3286;49.858;8.768;2023-03-05T12:17:44;99126.56;;;4.60;49.28
6506;BME280;3286;49.858;8.768;2023-03-05T12:20:18;99118.13;;;5.49;47.47
6506;BME280;3286;49.858;8.768;2023-03-05T12:22:49;99108.38;;;6.72;44.33
6506;BME280;3286;49.858;8.768;2023-03-05T12:25:25;99100.31;;;6.63;43.71
6506;BME280;3286;49.858;8.768;2023-03-05T12:27:52;99106.66;;;6.28;45.54
6506;BME280;3286;49.858;8.768;2023-03-05T12:30:54;99099.81;;;5.38;48.70
6506;BME280;3286;49.858;8.768;2023-03-05T12:33:30;99097.69;;;4.01;51.06
6506;BME280;3286;49.858;8.768;2023-03-05T12:39:00;99084.88;;;5.49;48.05
6506;BME280;3286;49.858;8.768;2023-03-05T12:41:35;99088.53;;;6.36;45.52
6506;BME280;3286;49.858;8.768;2023-03-05T12:44:26;99082.25;;;6.49;45.82
6506;BME280;3286;49.858;8.768;2023-03-05T12:47:17;99077.97;;;5.48;47.93
6506;BME280;3286;49.858;8.768;2023-03-05T12:49:48;99068.75;;;6.32;46.32
6506;BME280;3286;49.858;8.768;2023-03-05T12:52:26;99054.00;;;7.46;44.62
6506;BME280;3286;49.858;8.768;2023-03-05T12:54:59;99055.31;;;7.71;43.51
6506;BME280;3286;49.858;8.768;2023-03-05T12:57:27;99050.34;;;8.47;41.30
6506;BME280;3286;49.858;8.768;2023-03-05T12:59:58;99043.84;;;7.82;41.53
6506;BME280;3286;49.858;8.768;2023-03-05T13:02:35;99045.94;;;6.75;43.88
6506;BME280;3286;49.858;8.768;2023-03-05T13:05:06;99048.06;;;6.39;45.99
6506;BME280;3286;49.858;8.768;2023-03-05T13:07:40;99034.75;;;6.73;44.75
6506;BME280;3286;49.858;8.768;2023-03-05T13:10:21;99032.75;;;6.65;44.33
6506;BME280;3286;49.858;8.768;2023-03-05T13:12:49;99031.97;;;6.96;44.04
6506;BME280;3286;49.858;8.768;2023-03-05T13:15:17;99023.34;;;7.76;42.07
6506;BME280;3286;49.858;8.768;2023-03-05T13:17:52;99016.84;;;7.90;41.27
6506;BME280;3286;49.858;8.768;2023-03-05T13:20:26;99024.78;;;6.67;43.48
6506;BME280;3286;49.858;8.768;2023-03-05T13:23:04;99020.41;;;6.77;43.93
6506;BME280;3286;49.858;8.768;2023-03-05T13:25:30;99017.81;;;7.98;41.34
6506;BME280;3286;49.858;8.768;2023-03-05T13:28:01;99006.97;;;7.52;41.89
6506;BME280;3286;49.858;8.768;2023-03-05T13:30:30;99016.97;;;6.87;44.44
6506;BME280;3286;49.858;8.768;2023-03-05T13:33:00;99017.00;;;6.65;43.99
6506;BME280;3286;49.858;8.768;2023-03-05T13:35:28;99011.78;;;6.96;42.36
6506;BME280;3286;49.858;8.768;2023-03-05T13:37:55;99005.59;;;7.58;41.20
6506;BME280;3286;49.858;8.768;2023-03-05T13:40:24;99006.06;;;6.60;43.46
6506;BME280;3286;49.858;8.768;2023-03-05T13:42:51;98999.56;;;7.97;41.87
6506;BME280;3286;49.858;8.768;2023-03-05T13:45:24;98997.47;;;7.71;41.00
6506;BME280;3286;49.858;8.768;2023-03-05T13:47:54;99002.25;;;5.57;46.06